sensor_id;sensor_type;location;lat;lon;timestamp;P1;durP1;ratioP1;P2;durP2;ratioP2
15831;SDS011;8016;49.928;9.372;2023-07-28T00:00:50;1.97;;;1.87;;
15831;SDS011;8016;49.928;9.372;2023-07-28T00:03:16;1.57;;;1.47;;
15831;SDS011;8016;49.928;9.372;2023-07-28T00:05:43;1.80;;;1.70;;
15831;SDS011;8016;49.928;9.372;2023-07-28T00:08:08;1.80;;;1.60;;
15831;SDS011;8016;49.928;9.372;2023-07-28T00:10:39;1.83;;;1.73;;
15831;SDS011;8016;49.928;9.372;2023-07-28T00:13:06;5.03;;;1.90;;
15831;SDS011;8016;49.928;9.372;2023-07-28T00:15:32;2.17;;;1.90;;
15831;SDS011;8016;49.928;9.372;2023-07-28T00:17:58;2.80;;;2.00;;
15831;SDS011;8016;49.928;9.372;2023-07-28T00:20:25;2.37;;;1.80;;
15831;SDS011;8016;49.928;9.372;2023-07-28T00:22:51;2.93;;;1.87;;
15831;SDS011;8016;49.928;9.372;2023-07-28T00:25:17;2.47;;;2.27;;
15831;SDS011;8016;49.928;9.372;2023-07-28T00:27:43;2.40;;;2.20;;
15831;SDS011;8016;49.928;9.372;2023-07-28T00:30:09;2.87;;;1.90;;
15831;SDS011;8016;49.928;9.372;2023-07-28T00:32:36;2.50;;;2.30;;
15831;SDS011;8016;49.928;9.372;2023-07-28T00:35:02;2.70;;;2.50;;
15831;SDS011;8016;49.928;9.372;2023-07-28T00:37:28;1.67;;;1.57;;
15831;SDS011;8016;49.928;9.372;2023-07-28T00:39:54;1.93;;;1.83;;
15831;SDS011;8016;49.928;9.372;2023-07-28T00:42:20;1.80;;;1.53;;
15831;SDS011;8016;49.928;9.372;2023-07-28T00:44:46;1.70;;;1.60;;
15831;SDS011;8016;49.928;9.372;2023-07-28T00:47:12;1.57;;;1.47;;
15831;SDS011;8016;49.928;9.372;2023-07-28T00:49:38;1.23;;;1.10;;
15831;SDS011;8016;49.928;9.372;2023-07-28T00:52:07;1.77;;;1.10;;
15831;SDS011;8016;49.928;9.372;2023-07-28T00:54:33;1.33;;;1.27;;
15831;SDS011;8016;49.928;9.372;2023-07-28T00:56:59;1.23;;;1.00;;
15831;SDS011;8016;49.928;9.372;2023-07-28T00:59:26;1.43;;;1.10;;
15831;SDS011;8016;49.928;9.372;2023-07-28T01:01:52;1.63;;;1.40;;
15831;SDS011;8016;49.928;9.372;2023-07-28T01:04:18;1.70;;;1.40;;
15831;SDS011;8016;49.928;9.372;2023-07-28T01:06:51;2.00;;;1.60;;
15831;SDS011;8016;49.928;9.372;2023-07-28T01:09:20;1.90;;;1.70;;
15831;SDS011;8016;49.928;9.372;2023-07-28T01:11:56;1.93;;;1.83;;
15831;SDS011;8016;49.928;9.372;2023-07-28T01:14:22;2.10;;;1.90;;
15831;SDS011;8016;49.928;9.372;2023-07-28T01:16:48;2.37;;;2.00;;
15831;SDS011;8016;49.928;9.372;2023-07-28T01:19:15;2.80;;;1.80;;
15831;SDS011;8016;49.928;9.372;2023-07-28T01:21:42;2.57;;;2.00;;
15831;SDS011;8016;49.928;9.372;2023-07-28T01:24:20;2.00;;;1.90;;
15831;SDS011;8016;49.928;9.372;2023-07-28T01:26:47;1.97;;;1.87;;
15831;SDS011;8016;49.928;9.372;2023-07-28T01:29:14;2.17;;;1.97;;
15831;SDS011;8016;49.928;9.372;2023-07-28T01:31:40;2.17;;;2.00;;
15831;SDS011;8016;49.928;9.372;2023-07-28T01:34:06;2.27;;;2.07;;
15831;SDS011;8016;49.928;9.372;2023-07-28T01:36:32;1.97;;;1.83;;
15831;SDS011;8016;49.928;9.372;2023-07-28T01:38:58;2.10;;;1.90;;
15831;SDS011;8016;49.928;9.372;2023-07-28T01:41:24;2.90;;;1.90;;
15831;SDS011;8016;49.928;9.372;2023-07-28T01:43:50;2.17;;;2.00;;
15831;SDS011;8016;49.928;9.372;2023-07-28T01:46:17;2.30;;;2.07;;
15831;SDS011;8016;49.928;9.372;2023-07-28T01:48:42;4.00;;;2.20;;
15831;SDS011;8016;49.928;9.372;2023-07-28T01:51:08;2.20;;;2.00;;
15831;SDS011;8016;49.928;9.372;2023-07-28T01:53:34;2.47;;;2.27;;
15831;SDS011;8016;49.928;9.372;2023-07-28T01:56:00;3.30;;;2.37;;
15831;SDS011;8016;49.928;9.372;2023-07-28T01:58:26;2.63;;;2.43;;
15831;SDS011;8016;49.928;9.372;2023-07-28T02:00:52;2.77;;;2.43;;
15831;SDS011;8016;49.928;9.372;2023-07-28T02:03:18;2.57;;;2.37;;
15831;SDS011;8016;49.928;9.372;2023-07-28T02:05:44;3.60;;;2.30;;
15831;SDS011;8016;49.928;9.372;2023-07-28T02:08:10;2.50;;;2.30;;
15831;SDS011;8016;49.928;9.372;2023-07-28T02:10:36;3.27;;;2.73;;
15831;SDS011;8016;49.928;9.372;2023-07-28T02:13:02;2.73;;;2.37;;
15831;SDS011;8016;49.928;9.372;2023-07-28T02:15:28;2.53;;;2.33;;
15831;SDS011;8016;49.928;9.372;2023-07-28T02:17:54;4.27;;;2.50;;
15831;SDS011;8016;49.928;9.372;2023-07-28T02:20:20;2.07;;;1.97;;
15831;SDS011;8016;49.928;9.372;2023-07-28T02:22:46;3.10;;;2.50;;
15831;SDS011;8016;49.928;9.372;2023-07-28T02:25:12;2.50;;;2.30;;
15831;SDS011;8016;49.928;9.372;2023-07-28T02:27:38;2.87;;;2.30;;
15831;SDS011;8016;49.928;9.372;2023-07-28T02:30:04;3.97;;;2.47;;
15831;SDS011;8016;49.928;9.372;2023-07-28T02:32:30;2.63;;;2.43;;
15831;SDS011;8016;49.928;9.372;2023-07-28T02:34:56;3.00;;;2.20;;
15831;SDS011;8016;49.928;9.372;2023-07-28T02:37:23;3.73;;;1.87;;
15831;SDS011;8016;49.928;9.372;2023-07-28T02:39:49;3.87;;;2.50;;
15831;SDS011;8016;49.928;9.372;2023-07-28T02:42:14;2.40;;;2.20;;
15831;SDS011;8016;49.928;9.372;2023-07-28T02:44:40;2.50;;;2.30;;
15831;SDS011;8016;49.928;9.372;2023-07-28T02:47:06;4.23;;;2.60;;
15831;SDS011;8016;49.928;9.372;2023-07-28T02:49:32;2.27;;;2.10;;
15831;SDS011;8016;49.928;9.372;2023-07-28T02:51:58;3.20;;;1.90;;
15831;SDS011;8016;49.928;9.372;2023-07-28T02:54:24;2.33;;;2.13;;
15831;SDS011;8016;49.928;9.372;2023-07-28T02:56:51;2.47;;;2.07;;
15831;SDS011;8016;49.928;9.372;2023-07-28T02:59:17;2.20;;;1.97;;
15831;SDS011;8016;49.928;9.372;2023-07-28T03:01:43;2.47;;;2.17;;
15831;SDS011;8016;49.928;9.372;2023-07-28T03:04:09;2.80;;;2.07;;
15831;SDS011;8016;49.928;9.372;2023-07-28T03:06:35;2.13;;;1.93;;
15831;SDS011;8016;49.928;9.372;2023-07-28T03:09:01;2.20;;;2.00;;
15831;SDS011;8016;49.928;9.372;2023-07-28T03:11:27;1.80;;;1.70;;
15831;SDS011;8016;49.928;9.372;2023-07-28T03:13:53;2.13;;;1.33;;
15831;SDS011;8016;49.928;9.372;2023-07-28T03:16:19;1.30;;;1.20;;
15831;SDS011;8016;49.928;9.372;2023-07-28T03:18:45;1.43;;;1.33;;
15831;SDS011;8016;49.928;9.372;2023-07-28T03:21:11;1.77;;;1.60;;
15831;SDS011;8016;49.928;9.372;2023-07-28T03:23:37;1.87;;;1.37;;
15831;SDS011;8016;49.928;9.372;2023-07-28T03:26:03;1.70;;;1.50;;
15831;SDS011;8016;49.928;9.372;2023-07-28T03:28:29;1.67;;;1.57;;
15831;SDS011;8016;49.928;9.372;2023-07-28T03:30:55;2.37;;;1.63;;
15831;SDS011;8016;49.928;9.372;2023-07-28T03:33:21;3.73;;;1.60;;
15831;SDS011;8016;49.928;9.372;2023-07-28T03:35:47;1.87;;;1.57;;
15831;SDS011;8016;49.928;9.372;2023-07-28T03:38:13;1.53;;;1.43;;
15831;SDS011;8016;49.928;9.372;2023-07-28T03:40:39;2.43;;;1.20;;
15831;SDS011;8016;49.928;9.372;2023-07-28T03:43:05;1.83;;;1.30;;
15831;SDS011;8016;49.928;9.372;2023-07-28T03:45:30;1.53;;;1.43;;
15831;SDS011;8016;49.928;9.372;2023-07-28T03:47:56;2.20;;;1.53;;
15831;SDS011;8016;49.928;9.372;2023-07-28T03:50:22;1.50;;;1.40;;
15831;SDS011;8016;49.928;9.372;2023-07-28T03:52:51;2.07;;;1.23;;
15831;SDS011;8016;49.928;9.372;2023-07-28T03:55:17;1.67;;;1.50;;
15831;SDS011;8016;49.928;9.372;2023-07-28T03:57:43;1.50;;;1.33;;
15831;SDS011;8016;49.928;9.372;2023-07-28T04:00:09;2.50;;;1.50;;
15831;SDS011;8016;49.928;9.372;2023-07-28T04:02:35;1.50;;;1.40;;
15831;SDS011;8016;49.928;9.372;2023-07-28T04:05:01;1.43;;;1.20;;
15831;SDS011;8016;49.928;9.372;2023-07-28T04:07:27;1.50;;;1.40;;
15831;SDS011;8016;49.928;9.372;2023-07-28T04:09:53;1.97;;;1.60;;
15831;SDS011;8016;49.928;9.372;2023-07-28T04:12:19;2.43;;;1.73;;
15831;SDS011;8016;49.928;9.372;2023-07-28T04:14:45;2.27;;;1.77;;
15831;SDS011;8016;49.928;9.372;2023-07-28T04:17:11;2.43;;;1.40;;
15831;SDS011;8016;49.928;9.372;2023-07-28T04:19:37;1.33;;;1.23;;
15831;SDS011;8016;49.928;9.372;2023-07-28T04:22:03;1.50;;;1.40;;
15831;SDS011;8016;49.928;9.372;2023-07-28T04:24:29;1.73;;;1.63;;
15831;SDS011;8016;49.928;9.372;2023-07-28T04:26:55;1.57;;;1.47;;
15831;SDS011;8016;49.928;9.372;2023-07-28T04:29:20;1.90;;;1.60;;
15831;SDS011;8016;49.928;9.372;2023-07-28T04:31:46;1.40;;;1.30;;
15831;SDS011;8016;49.928;9.372;2023-07-28T04:34:12;1.50;;;1.40;;
15831;SDS011;8016;49.928;9.372;2023-07-28T04:36:38;1.60;;;1.50;;
15831;SDS011;8016;49.928;9.372;2023-07-28T04:39:04;1.80;;;1.40;;
15831;SDS011;8016;49.928;9.372;2023-07-28T04:41:30;1.40;;;1.30;;
15831;SDS011;8016;49.928;9.372;2023-07-28T04:43:56;2.10;;;1.20;;
15831;SDS011;8016;49.928;9.372;2023-07-28T04:46:22;1.43;;;1.27;;
15831;SDS011;8016;49.928;9.372;2023-07-28T04:48:48;1.50;;;1.40;;
15831;SDS011;8016;49.928;9.372;2023-07-28T04:51:14;1.87;;;1.53;;
15831;SDS011;8016;49.928;9.372;2023-07-28T04:53:40;1.40;;;1.17;;
15831;SDS011;8016;49.928;9.372;2023-07-28T04:56:06;1.47;;;1.37;;
15831;SDS011;8016;49.928;9.372;2023-07-28T04:58:33;1.40;;;1.10;;
15831;SDS011;8016;49.928;9.372;2023-07-28T05:00:59;1.50;;;1.30;;
15831;SDS011;8016;49.928;9.372;2023-07-28T05:03:26;1.47;;;1.10;;
15831;SDS011;8016;49.928;9.372;2023-07-28T05:05:52;1.50;;;1.30;;
15831;SDS011;8016;49.928;9.372;2023-07-28T05:08:18;1.33;;;1.23;;
15831;SDS011;8016;49.928;9.372;2023-07-28T05:10:44;1.30;;;1.20;;
15831;SDS011;8016;49.928;9.372;2023-07-28T05:13:10;1.87;;;1.33;;
15831;SDS011;8016;49.928;9.372;2023-07-28T05:15:36;1.60;;;1.50;;
15831;SDS011;8016;49.928;9.372;2023-07-28T05:18:02;1.50;;;1.40;;
15831;SDS011;8016;49.928;9.372;2023-07-28T05:20:28;3.00;;;2.73;;
15831;SDS011;8016;49.928;9.372;2023-07-28T05:22:54;1.50;;;1.40;;
15831;SDS011;8016;49.928;9.372;2023-07-28T05:25:20;3.77;;;3.40;;
15831;SDS011;8016;49.928;9.372;2023-07-28T05:27:47;2.37;;;2.17;;
15831;SDS011;8016;49.928;9.372;2023-07-28T05:30:13;3.70;;;2.60;;
15831;SDS011;8016;49.928;9.372;2023-07-28T05:32:39;1.50;;;1.40;;
15831;SDS011;8016;49.928;9.372;2023-07-28T05:35:05;2.57;;;2.37;;
15831;SDS011;8016;49.928;9.372;2023-07-28T05:37:31;2.17;;;2.00;;
15831;SDS011;8016;49.928;9.372;2023-07-28T05:39:57;2.33;;;2.13;;
15831;SDS011;8016;49.928;9.372;2023-07-28T05:42:23;2.10;;;1.30;;
15831;SDS011;8016;49.928;9.372;2023-07-28T05:44:49;2.70;;;2.33;;
15831;SDS011;8016;49.928;9.372;2023-07-28T05:47:17;2.50;;;2.30;;
15831;SDS011;8016;49.928;9.372;2023-07-28T05:49:43;1.63;;;1.53;;
15831;SDS011;8016;49.928;9.372;2023-07-28T05:52:09;1.53;;;1.43;;
15831;SDS011;8016;49.928;9.372;2023-07-28T05:54:35;1.80;;;1.70;;
15831;SDS011;8016;49.928;9.372;2023-07-28T05:57:00;2.47;;;1.40;;
15831;SDS011;8016;49.928;9.372;2023-07-28T05:59:27;1.70;;;1.60;;
15831;SDS011;8016;49.928;9.372;2023-07-28T06:01:54;1.77;;;1.67;;
15831;SDS011;8016;49.928;9.372;2023-07-28T06:04:20;2.00;;;1.80;;
15831;SDS011;8016;49.928;9.372;2023-07-28T06:06:46;3.70;;;2.20;;
15831;SDS011;8016;49.928;9.372;2023-07-28T06:09:12;1.30;;;1.20;;
15831;SDS011;8016;49.928;9.372;2023-07-28T06:11:39;6.00;;;5.33;;
15831;SDS011;8016;49.928;9.372;2023-07-28T06:14:05;1.50;;;1.40;;
15831;SDS011;8016;49.928;9.372;2023-07-28T06:16:31;3.13;;;1.70;;
15831;SDS011;8016;49.928;9.372;2023-07-28T06:18:57;4.77;;;3.03;;
15831;SDS011;8016;49.928;9.372;2023-07-28T06:21:23;1.60;;;1.50;;
15831;SDS011;8016;49.928;9.372;2023-07-28T06:23:49;2.80;;;2.30;;
15831;SDS011;8016;49.928;9.372;2023-07-28T06:26:15;1.53;;;1.43;;
15831;SDS011;8016;49.928;9.372;2023-07-28T06:28:41;1.40;;;1.30;;
15831;SDS011;8016;49.928;9.372;2023-07-28T06:31:07;1.10;;;1.00;;
15831;SDS011;8016;49.928;9.372;2023-07-28T06:33:34;1.37;;;1.23;;
15831;SDS011;8016;49.928;9.372;2023-07-28T06:36:01;1.40;;;1.30;;
15831;SDS011;8016;49.928;9.372;2023-07-28T06:38:27;2.77;;;1.30;;
15831;SDS011;8016;49.928;9.372;2023-07-28T06:40:53;1.40;;;1.30;;
15831;SDS011;8016;49.928;9.372;2023-07-28T06:43:20;1.50;;;1.30;;
15831;SDS011;8016;49.928;9.372;2023-07-28T06:45:46;1.67;;;1.30;;
15831;SDS011;8016;49.928;9.372;2023-07-28T06:48:12;1.50;;;1.40;;
15831;SDS011;8016;49.928;9.372;2023-07-28T06:50:38;2.40;;;1.50;;
15831;SDS011;8016;49.928;9.372;2023-07-28T06:53:04;1.07;;;1.07;;
15831;SDS011;8016;49.928;9.372;2023-07-28T06:55:30;1.20;;;1.10;;
15831;SDS011;8016;49.928;9.372;2023-07-28T06:57:56;1.30;;;1.20;;
15831;SDS011;8016;49.928;9.372;2023-07-28T07:00:22;1.40;;;1.20;;
15831;SDS011;8016;49.928;9.372;2023-07-28T07:02:48;1.43;;;1.33;;
15831;SDS011;8016;49.928;9.372;2023-07-28T07:05:14;2.10;;;1.10;;
15831;SDS011;8016;49.928;9.372;2023-07-28T07:07:40;1.60;;;1.10;;
15831;SDS011;8016;49.928;9.372;2023-07-28T07:10:06;1.40;;;1.30;;
15831;SDS011;8016;49.928;9.372;2023-07-28T07:12:33;1.63;;;1.20;;
15831;SDS011;8016;49.928;9.372;2023-07-28T07:14:59;1.10;;;1.00;;
15831;SDS011;8016;49.928;9.372;2023-07-28T07:17:24;1.43;;;0.97;;
15831;SDS011;8016;49.928;9.372;2023-07-28T07:19:50;1.20;;;1.10;;
15831;SDS011;8016;49.928;9.372;2023-07-28T07:22:16;0.83;;;0.80;;
15831;SDS011;8016;49.928;9.372;2023-07-28T07:24:43;1.30;;;0.80;;
15831;SDS011;8016;49.928;9.372;2023-07-28T07:27:09;1.13;;;1.03;;
15831;SDS011;8016;49.928;9.372;2023-07-28T07:29:38;1.50;;;0.90;;
15831;SDS011;8016;49.928;9.372;2023-07-28T07:32:05;3.40;;;0.80;;
15831;SDS011;8016;49.928;9.372;2023-07-28T07:34:31;1.53;;;1.00;;
15831;SDS011;8016;49.928;9.372;2023-07-28T07:36:57;0.80;;;0.80;;
15831;SDS011;8016;49.928;9.372;2023-07-28T07:39:23;0.80;;;0.80;;
15831;SDS011;8016;49.928;9.372;2023-07-28T07:41:49;2.30;;;0.90;;
15831;SDS011;8016;49.928;9.372;2023-07-28T07:44:15;0.80;;;0.70;;
15831;SDS011;8016;49.928;9.372;2023-07-28T07:46:41;3.10;;;0.80;;
15831;SDS011;8016;49.928;9.372;2023-07-28T07:49:07;1.83;;;0.80;;
15831;SDS011;8016;49.928;9.372;2023-07-28T07:51:33;0.70;;;0.70;;
15831;SDS011;8016;49.928;9.372;2023-07-28T07:53:59;0.80;;;0.80;;
15831;SDS011;8016;49.928;9.372;2023-07-28T07:56:28;1.07;;;0.97;;
15831;SDS011;8016;49.928;9.372;2023-07-28T07:58:54;0.90;;;0.90;;
15831;SDS011;8016;49.928;9.372;2023-07-28T08:01:20;0.97;;;0.80;;
15831;SDS011;8016;49.928;9.372;2023-07-28T08:03:46;1.03;;;0.90;;
15831;SDS011;8016;49.928;9.372;2023-07-28T08:06:12;0.60;;;0.60;;
15831;SDS011;8016;49.928;9.372;2023-07-28T08:08:38;2.10;;;0.90;;
15831;SDS011;8016;49.928;9.372;2023-07-28T08:11:04;1.10;;;0.70;;
15831;SDS011;8016;49.928;9.372;2023-07-28T08:13:32;0.80;;;0.80;;
15831;SDS011;8016;49.928;9.372;2023-07-28T08:15:58;1.20;;;0.70;;
15831;SDS011;8016;49.928;9.372;2023-07-28T08:18:24;2.10;;;0.80;;
15831;SDS011;8016;49.928;9.372;2023-07-28T08:20:50;0.97;;;0.87;;
15831;SDS011;8016;49.928;9.372;2023-07-28T08:23:16;1.27;;;0.67;;
15831;SDS011;8016;49.928;9.372;2023-07-28T08:25:42;0.90;;;0.77;;
15831;SDS011;8016;49.928;9.372;2023-07-28T08:28:08;1.10;;;0.97;;
15831;SDS011;8016;49.928;9.372;2023-07-28T08:30:34;1.10;;;0.90;;
15831;SDS011;8016;49.928;9.372;2023-07-28T08:33:00;0.77;;;0.77;;
15831;SDS011;8016;49.928;9.372;2023-07-28T08:35:27;1.10;;;1.00;;
15831;SDS011;8016;49.928;9.372;2023-07-28T08:37:53;0.83;;;0.80;;
15831;SDS011;8016;49.928;9.372;2023-07-28T08:40:19;0.80;;;0.80;;
15831;SDS011;8016;49.928;9.372;2023-07-28T08:42:45;0.60;;;0.60;;
15831;SDS011;8016;49.928;9.372;2023-07-28T08:45:11;0.70;;;0.70;;
15831;SDS011;8016;49.928;9.372;2023-07-28T08:47:38;2.13;;;0.80;;
15831;SDS011;8016;49.928;9.372;2023-07-28T08:50:04;0.97;;;0.87;;
15831;SDS011;8016;49.928;9.372;2023-07-28T08:52:31;1.10;;;0.90;;
15831;SDS011;8016;49.928;9.372;2023-07-28T08:54:57;0.80;;;0.80;;
15831;SDS011;8016;49.928;9.372;2023-07-28T08:57:23;0.80;;;0.80;;
15831;SDS011;8016;49.928;9.372;2023-07-28T08:59:49;0.90;;;0.90;;
15831;SDS011;8016;49.928;9.372;2023-07-28T09:02:17;1.17;;;1.00;;
15831;SDS011;8016;49.928;9.372;2023-07-28T09:04:44;1.00;;;1.00;;
15831;SDS011;8016;49.928;9.372;2023-07-28T09:07:10;1.17;;;0.90;;
15831;SDS011;8016;49.928;9.372;2023-07-28T09:09:36;0.90;;;0.90;;
15831;SDS011;8016;49.928;9.372;2023-07-28T09:12:02;2.43;;;2.07;;
15831;SDS011;8016;49.928;9.372;2023-07-28T09:14:29;1.90;;;1.00;;
15831;SDS011;8016;49.928;9.372;2023-07-28T09:16:55;1.00;;;0.90;;
15831;SDS011;8016;49.928;9.372;2023-07-28T09:19:21;1.13;;;1.03;;
15831;SDS011;8016;49.928;9.372;2023-07-28T09:21:57;0.90;;;0.80;;
15831;SDS011;8016;49.928;9.372;2023-07-28T09:24:28;1.57;;;0.90;;
15831;SDS011;8016;49.928;9.372;2023-07-28T09:26:56;2.07;;;1.20;;
15831;SDS011;8016;49.928;9.372;2023-07-28T09:29:22;1.30;;;1.20;;
15831;SDS011;8016;49.928;9.372;2023-07-28T09:31:49;1.20;;;1.10;;
15831;SDS011;8016;49.928;9.372;2023-07-28T09:34:27;1.30;;;1.20;;
15831;SDS011;8016;49.928;9.372;2023-07-28T09:36:56;1.67;;;1.27;;
15831;SDS011;8016;49.928;9.372;2023-07-28T09:39:23;2.30;;;1.00;;
15831;SDS011;8016;49.928;9.372;2023-07-28T09:41:50;4.83;;;0.90;;
15831;SDS011;8016;49.928;9.372;2023-07-28T09:44:16;1.20;;;1.10;;
15831;SDS011;8016;49.928;9.372;2023-07-28T09:49:11;2.17;;;1.00;;
15831;SDS011;8016;49.928;9.372;2023-07-28T09:51:38;0.93;;;0.93;;
15831;SDS011;8016;49.928;9.372;2023-07-28T09:54:14;0.90;;;0.90;;
15831;SDS011;8016;49.928;9.372;2023-07-28T09:56:41;1.97;;;0.90;;
15831;SDS011;8016;49.928;9.372;2023-07-28T09:59:11;2.87;;;1.00;;
15831;SDS011;8016;49.928;9.372;2023-07-28T10:01:39;0.93;;;0.87;;
15831;SDS011;8016;49.928;9.372;2023-07-28T10:04:05;1.27;;;1.10;;
15831;SDS011;8016;49.928;9.372;2023-07-28T10:06:31;2.40;;;1.10;;
15831;SDS011;8016;49.928;9.372;2023-07-28T10:08:58;2.10;;;1.07;;
15831;SDS011;8016;49.928;9.372;2023-07-28T10:11:25;1.87;;;1.00;;
15831;SDS011;8016;49.928;9.372;2023-07-28T10:13:51;2.90;;;1.00;;
15831;SDS011;8016;49.928;9.372;2023-07-28T10:16:19;1.67;;;1.50;;
15831;SDS011;8016;49.928;9.372;2023-07-28T10:18:52;1.30;;;1.10;;
15831;SDS011;8016;49.928;9.372;2023-07-28T10:21:19;2.93;;;0.93;;
15831;SDS011;8016;49.928;9.372;2023-07-28T10:23:45;1.20;;;1.10;;
15831;SDS011;8016;49.928;9.372;2023-07-28T10:26:30;2.03;;;0.90;;
15831;SDS011;8016;49.928;9.372;2023-07-28T10:28:56;1.10;;;1.00;;
15831;SDS011;8016;49.928;9.372;2023-07-28T10:31:33;1.13;;;1.10;;
15831;SDS011;8016;49.928;9.372;2023-07-28T10:33:59;2.00;;;1.20;;
15831;SDS011;8016;49.928;9.372;2023-07-28T10:39:01;1.20;;;1.10;;
15831;SDS011;8016;49.928;9.372;2023-07-28T10:41:28;1.83;;;1.10;;
15831;SDS011;8016;49.928;9.372;2023-07-28T10:43:56;1.70;;;1.20;;
15831;SDS011;8016;49.928;9.372;2023-07-28T10:46:22;1.60;;;1.50;;
15831;SDS011;8016;49.928;9.372;2023-07-28T10:48:49;3.07;;;1.63;;
15831;SDS011;8016;49.928;9.372;2023-07-28T10:51:24;1.33;;;1.20;;
15831;SDS011;8016;49.928;9.372;2023-07-28T10:53:56;1.63;;;1.40;;
15831;SDS011;8016;49.928;9.372;2023-07-28T10:56:22;1.90;;;1.70;;
15831;SDS011;8016;49.928;9.372;2023-07-28T10:58:58;3.53;;;1.70;;
15831;SDS011;8016;49.928;9.372;2023-07-28T11:01:30;1.90;;;1.33;;
15831;SDS011;8016;49.928;9.372;2023-07-28T11:03:57;2.13;;;1.93;;
15831;SDS011;8016;49.928;9.372;2023-07-28T11:06:31;2.83;;;2.00;;
15831;SDS011;8016;49.928;9.372;2023-07-28T11:08:57;2.67;;;1.70;;
15831;SDS011;8016;49.928;9.372;2023-07-28T11:11:23;2.03;;;1.90;;
15831;SDS011;8016;49.928;9.372;2023-07-28T11:13:50;1.90;;;1.70;;
15831;SDS011;8016;49.928;9.372;2023-07-28T11:16:16;3.40;;;1.70;;
15831;SDS011;8016;49.928;9.372;2023-07-28T11:18:42;3.67;;;2.20;;
15831;SDS011;8016;49.928;9.372;2023-07-28T11:21:08;1.80;;;1.70;;
15831;SDS011;8016;49.928;9.372;2023-07-28T11:23:34;2.00;;;1.37;;
15831;SDS011;8016;49.928;9.372;2023-07-28T11:26:00;1.73;;;1.63;;
15831;SDS011;8016;49.928;9.372;2023-07-28T11:28:26;1.80;;;1.70;;
15831;SDS011;8016;49.928;9.372;2023-07-28T11:30:53;2.73;;;2.10;;
15831;SDS011;8016;49.928;9.372;2023-07-28T11:33:19;2.00;;;1.90;;
15831;SDS011;8016;49.928;9.372;2023-07-28T11:35:45;1.87;;;1.77;;
15831;SDS011;8016;49.928;9.372;2023-07-28T11:38:12;2.43;;;1.97;;
15831;SDS011;8016;49.928;9.372;2023-07-28T11:40:38;1.80;;;1.70;;
15831;SDS011;8016;49.928;9.372;2023-07-28T11:43:04;1.80;;;1.70;;
15831;SDS011;8016;49.928;9.372;2023-07-28T11:45:30;2.37;;;1.90;;
15831;SDS011;8016;49.928;9.372;2023-07-28T11:48:01;2.40;;;2.20;;
15831;SDS011;8016;49.928;9.372;2023-07-28T11:50:29;3.73;;;2.87;;
15831;SDS011;8016;49.928;9.372;2023-07-28T11:52:56;3.97;;;2.73;;
15831;SDS011;8016;49.928;9.372;2023-07-28T11:55:23;3.97;;;2.73;;
15831;SDS011;8016;49.928;9.372;2023-07-28T11:57:49;3.90;;;2.90;;
15831;SDS011;8016;49.928;9.372;2023-07-28T12:00:16;3.20;;;1.90;;
15831;SDS011;8016;49.928;9.372;2023-07-28T12:02:43;4.13;;;2.00;;
15831;SDS011;8016;49.928;9.372;2023-07-28T12:05:14;1.83;;;1.70;;
15831;SDS011;8016;49.928;9.372;2023-07-28T12:07:40;3.00;;;2.50;;
15831;SDS011;8016;49.928;9.372;2023-07-28T12:10:06;1.73;;;1.40;;
15831;SDS011;8016;49.928;9.372;2023-07-28T12:12:44;1.37;;;1.27;;
15831;SDS011;8016;49.928;9.372;2023-07-28T12:15:18;3.70;;;1.40;;
15831;SDS011;8016;49.928;9.372;2023-07-28T12:18:00;2.73;;;2.20;;
15831;SDS011;8016;49.928;9.372;2023-07-28T12:20:26;2.03;;;1.83;;
15831;SDS011;8016;49.928;9.372;2023-07-28T12:22:52;3.20;;;1.97;;
15831;SDS011;8016;49.928;9.372;2023-07-28T12:25:18;1.47;;;1.37;;
15831;SDS011;8016;49.928;9.372;2023-07-28T12:27:44;2.50;;;1.50;;
15831;SDS011;8016;49.928;9.372;2023-07-28T12:30:10;1.60;;;1.43;;
15831;SDS011;8016;49.928;9.372;2023-07-28T12:32:36;1.60;;;1.50;;
15831;SDS011;8016;49.928;9.372;2023-07-28T12:35:02;2.33;;;1.30;;
15831;SDS011;8016;49.928;9.372;2023-07-28T12:37:28;1.57;;;1.43;;
15831;SDS011;8016;49.928;9.372;2023-07-28T12:39:54;1.53;;;1.43;;
15831;SDS011;8016;49.928;9.372;2023-07-28T12:42:20;1.57;;;1.47;;
15831;SDS011;8016;49.928;9.372;2023-07-28T12:44:46;1.50;;;1.40;;
15831;SDS011;8016;49.928;9.372;2023-07-28T12:47:12;3.47;;;2.10;;
15831;SDS011;8016;49.928;9.372;2023-07-28T12:49:38;1.93;;;1.70;;
15831;SDS011;8016;49.928;9.372;2023-07-28T12:52:05;1.73;;;1.50;;
15831;SDS011;8016;49.928;9.372;2023-07-28T12:54:33;1.47;;;1.30;;
15831;SDS011;8016;49.928;9.372;2023-07-28T12:56:59;3.17;;;1.57;;
15831;SDS011;8016;49.928;9.372;2023-07-28T12:59:26;1.87;;;1.30;;
15831;SDS011;8016;49.928;9.372;2023-07-28T13:01:53;1.50;;;1.30;;
15831;SDS011;8016;49.928;9.372;2023-07-28T13:04:19;2.77;;;2.10;;
15831;SDS011;8016;49.928;9.372;2023-07-28T13:06:45;3.33;;;1.63;;
15831;SDS011;8016;49.928;9.372;2023-07-28T13:09:11;1.63;;;1.40;;
15831;SDS011;8016;49.928;9.372;2023-07-28T13:11:37;2.27;;;1.60;;
15831;SDS011;8016;49.928;9.372;2023-07-28T13:14:03;1.57;;;1.47;;
15831;SDS011;8016;49.928;9.372;2023-07-28T13:16:29;1.33;;;1.23;;
15831;SDS011;8016;49.928;9.372;2023-07-28T13:18:56;1.53;;;1.43;;
15831;SDS011;8016;49.928;9.372;2023-07-28T13:21:22;1.97;;;1.43;;
15831;SDS011;8016;49.928;9.372;2023-07-28T13:23:48;2.07;;;1.50;;
15831;SDS011;8016;49.928;9.372;2023-07-28T13:26:14;3.33;;;1.40;;
15831;SDS011;8016;49.928;9.372;2023-07-28T13:28:40;1.30;;;1.17;;
15831;SDS011;8016;49.928;9.372;2023-07-28T13:31:11;1.77;;;1.40;;
15831;SDS011;8016;49.928;9.372;2023-07-28T13:33:37;3.10;;;1.50;;
15831;SDS011;8016;49.928;9.372;2023-07-28T13:36:03;1.57;;;1.40;;
15831;SDS011;8016;49.928;9.372;2023-07-28T13:38:32;2.33;;;1.53;;
15831;SDS011;8016;49.928;9.372;2023-07-28T13:40:58;1.70;;;1.50;;
15831;SDS011;8016;49.928;9.372;2023-07-28T13:43:24;1.60;;;1.50;;
15831;SDS011;8016;49.928;9.372;2023-07-28T13:45:51;2.00;;;1.80;;
15831;SDS011;8016;49.928;9.372;2023-07-28T13:48:17;2.20;;;1.40;;
15831;SDS011;8016;49.928;9.372;2023-07-28T13:50:43;1.50;;;1.40;;
15831;SDS011;8016;49.928;9.372;2023-07-28T13:53:09;3.63;;;1.53;;
15831;SDS011;8016;49.928;9.372;2023-07-28T13:55:35;2.83;;;1.90;;
15831;SDS011;8016;49.928;9.372;2023-07-28T13:58:01;1.87;;;1.43;;
15831;SDS011;8016;49.928;9.372;2023-07-28T14:00:27;2.47;;;1.70;;
15831;SDS011;8016;49.928;9.372;2023-07-28T14:02:53;2.43;;;1.80;;
15831;SDS011;8016;49.928;9.372;2023-07-28T14:05:19;3.73;;;2.73;;
15831;SDS011;8016;49.928;9.372;2023-07-28T14:07:45;3.90;;;2.30;;
15831;SDS011;8016;49.928;9.372;2023-07-28T14:10:11;2.73;;;2.33;;
15831;SDS011;8016;49.928;9.372;2023-07-28T14:12:39;3.57;;;2.57;;
15831;SDS011;8016;49.928;9.372;2023-07-28T14:15:05;3.60;;;2.73;;
15831;SDS011;8016;49.928;9.372;2023-07-28T14:17:32;2.17;;;1.83;;
15831;SDS011;8016;49.928;9.372;2023-07-28T14:19:58;2.30;;;2.10;;
15831;SDS011;8016;49.928;9.372;2023-07-28T14:22:24;2.77;;;2.23;;
15831;SDS011;8016;49.928;9.372;2023-07-28T14:24:50;2.67;;;2.47;;
15831;SDS011;8016;49.928;9.372;2023-07-28T14:27:16;4.83;;;2.13;;
15831;SDS011;8016;49.928;9.372;2023-07-28T14:29:42;4.43;;;3.00;;
15831;SDS011;8016;49.928;9.372;2023-07-28T14:32:08;6.07;;;4.20;;
15831;SDS011;8016;49.928;9.372;2023-07-28T14:34:34;9.00;;;5.53;;
15831;SDS011;8016;49.928;9.372;2023-07-28T14:37:03;12.40;;;8.67;;
15831;SDS011;8016;49.928;9.372;2023-07-28T14:39:32;12.60;;;8.67;;
15831;SDS011;8016;49.928;9.372;2023-07-28T14:41:58;5.23;;;4.50;;
15831;SDS011;8016;49.928;9.372;2023-07-28T14:44:24;4.27;;;3.63;;
15831;SDS011;8016;49.928;9.372;2023-07-28T14:46:50;4.83;;;3.03;;
15831;SDS011;8016;49.928;9.372;2023-07-28T14:49:16;6.43;;;4.17;;
15831;SDS011;8016;49.928;9.372;2023-07-28T14:51:42;2.80;;;2.60;;
15831;SDS011;8016;49.928;9.372;2023-07-28T14:54:08;2.70;;;2.20;;
15831;SDS011;8016;49.928;9.372;2023-07-28T14:56:34;3.50;;;2.33;;
15831;SDS011;8016;49.928;9.372;2023-07-28T14:59:00;3.33;;;2.37;;
15831;SDS011;8016;49.928;9.372;2023-07-28T15:01:27;2.83;;;2.23;;